Time;durP1;ratioP1;P1;durP2;ratioP2;P2;SDS_P1;SDS_P2;PMS_P1;PMS_P2;Temp;Humidity;BMP_temperature;BMP_pressure;BME280_temperature;BME280_humidity;BME280_pressure;Samples;Min_cycle;Max_cycle;Signal;HPM_P1;HPM_P2
2022/11/13 00:01:18;;;;;;;;;;;;;;;14.72;72.20;103077.19;5071735;28;19974;-85
2022/11/13 00:03:43;;;;;;;;;;;;;;;14.78;72.19;103072.38;5071292;28;19908;-84
2022/11/13 00:06:09;;;;;;;;;;;;;;;14.75;72.35;103078.34;5072817;28;19916;-85
2022/11/13 00:08:34;;;;;;;;;;;;;;;14.71;72.52;103071.00;5058047;28;19924;-85
2022/11/13 00:11:03;;;;;;;;;;;;;;;14.74;72.30;103070.31;5070857;28;19918;-85
2022/11/13 00:13:29;;;;;;;;;;;;;;;14.75;72.29;103072.13;5053746;28;19931;-85
2022/11/13 00:16:00;;;;;;;;;;;;;;;14.73;72.29;103069.41;5072578;28;19930;-84
2022/11/13 00:18:26;;;;;;;;;;;;;;;14.70;72.29;103069.16;5070518;28;20349;-84
2022/11/13 00:20:52;;;;;;;;;;;;;;;14.80;71.91;103068.13;5085031;28;19913;-83
2022/11/13 00:23:17;;;;;;;;;;;;;;;14.71;72.31;103070.06;5071774;28;20367;-84
2022/11/13 00:25:43;;;;;;;;;;;;;;;14.76;72.20;103064.34;5070606;28;19916;-83
2022/11/13 00:28:16;;;;;;;;;;;;;;;14.75;72.22;103064.25;5064864;28;19940;-85
2022/11/13 00:30:41;;;;;;;;;;;;;;;14.74;72.24;103065.06;5072113;28;19915;-84
2022/11/13 00:33:07;;;;;;;;;;;;;;;14.74;72.19;103060.69;5088280;28;19912;-84
2022/11/13 00:35:32;;;;;;;;;;;;;;;14.70;72.36;103060.38;5054026;28;19912;-84
2022/11/13 00:37:58;;;;;;;;;;;;;;;14.74;72.16;103059.78;5073323;28;19915;-83
2022/11/13 00:40:23;;;;;;;;;;;;;;;14.69;72.39;103058.53;5067190;28;20564;-83
2022/11/13 00:42:48;;;;;;;;;;;;;;;14.66;72.44;103052.22;5054059;28;19912;-83
2022/11/13 00:45:14;;;;;;;;;;;;;;;14.66;72.57;103052.22;5076596;28;19919;-85
2022/11/13 00:47:39;;;;;;;;;;;;;;;14.71;72.35;103049.97;5088745;28;20381;-84
2022/11/13 00:50:05;;;;;;;;;;;;;;;14.67;72.48;103053.16;5059500;28;20030;-83
2022/11/13 00:52:31;;;;;;;;;;;;;;;14.63;72.53;103057.28;5060134;28;20394;-83
2022/11/13 00:55:00;;;;;;;;;;;;;;;14.65;72.51;103054.78;5072515;28;20356;-84
2022/11/13 00:57:27;;;;;;;;;;;;;;;14.67;72.26;103047.91;5094061;28;19951;-84
2022/11/13 00:59:52;;;;;;;;;;;;;;;14.68;72.30;103054.97;5079972;28;19938;-84
2022/11/13 01:02:17;;;;;;;;;;;;;;;14.70;72.21;103050.75;5055641;28;20361;-84
2022/11/13 01:04:43;;;;;;;;;;;;;;;14.72;72.26;103051.78;5069095;28;19908;-84
2022/11/13 01:07:08;;;;;;;;;;;;;;;14.72;72.15;103045.63;5072396;28;19948;-84
2022/11/13 01:09:34;;;;;;;;;;;;;;;14.75;72.01;103053.72;5070692;28;19939;-84
2022/11/13 01:11:59;;;;;;;;;;;;;;;14.74;72.07;103044.91;5072165;28;19916;-84
2022/11/13 01:14:25;;;;;;;;;;;;;;;14.71;72.10;103047.34;5072217;28;19915;-85
2022/11/13 01:16:50;;;;;;;;;;;;;;;14.68;72.36;103048.81;5071369;28;20325;-84
2022/11/13 01:19:15;;;;;;;;;;;;;;;14.74;72.04;103049.28;5074426;28;19976;-84
2022/11/13 01:21:41;;;;;;;;;;;;;;;14.69;72.29;103042.75;5056077;28;19969;-84
2022/11/13 01:24:06;;;;;;;;;;;;;;;14.74;72.01;103044.00;5086545;28;20348;-84
2022/11/13 01:26:32;;;;;;;;;;;;;;;14.73;72.08;103037.84;5079970;28;19983;-84
2022/11/13 01:28:58;;;;;;;;;;;;;;;14.66;72.40;103043.44;5069781;28;20004;-85
2022/11/13 01:31:24;;;;;;;;;;;;;;;14.75;72.06;103037.94;5073352;28;19916;-85
2022/11/13 01:33:50;;;;;;;;;;;;;;;14.72;72.14;103035.09;5074133;28;19912;-84
2022/11/13 01:36:16;;;;;;;;;;;;;;;14.73;72.12;103039.53;5072130;28;19983;-85
2022/11/13 01:38:42;;;;;;;;;;;;;;;14.70;72.01;103036.69;5082541;28;19981;-85
2022/11/13 01:41:08;;;;;;;;;;;;;;;14.72;71.96;103040.34;5077447;28;20373;-85
2022/11/13 01:43:35;;;;;;;;;;;;;;;14.77;71.79;103041.59;5077755;28;20004;-84
2022/11/13 01:46:06;;;;;;;;;;;;;;;14.75;71.99;103036.25;5065269;28;20492;-84
2022/11/13 01:48:33;;;;;;;;;;;;;;;14.73;72.06;103037.84;5078272;28;20006;-84
2022/11/13 01:50:58;;;;;;;;;;;;;;;14.74;72.01;103034.41;5060601;28;19912;-83
2022/11/13 01:53:24;;;;;;;;;;;;;;;14.71;72.02;103030.63;5078368;28;19919;-84
2022/11/13 01:55:49;;;;;;;;;;;;;;;14.75;71.87;103033.59;5072739;28;20420;-84
2022/11/13 01:58:15;;;;;;;;;;;;;;;14.75;71.92;103033.59;5064696;28;20389;-83
2022/11/13 02:00:40;;;;;;;;;;;;;;;14.75;71.92;103036.25;5076254;28;20462;-84
2022/11/13 02:03:06;;;;;;;;;;;;;;;14.72;71.92;103036.00;5073544;28;20362;-85
2022/11/13 02:05:31;;;;;;;;;;;;;;;14.71;72.09;103035.88;5078462;28;19999;-85
2022/11/13 02:07:56;;;;;;;;;;;;;;;14.73;72.09;103040.47;5069438;28;20368;-84
2022/11/13 02:10:22;;;;;;;;;;;;;;;14.73;71.95;103035.22;5071631;28;20609;-85
2022/11/13 02:12:49;;;;;;;;;;;;;;;14.66;72.19;103038.19;5071401;28;20347;-83
2022/11/13 02:15:14;;;;;;;;;;;;;;;14.68;72.09;103035.66;5070116;28;20003;-83
2022/11/13 02:17:42;;;;;;;;;;;;;;;14.74;71.92;103034.41;5079765;28;19944;-85
2022/11/13 02:20:07;;;;;;;;;;;;;;;14.70;72.08;103036.69;5073068;28;19999;-83
2022/11/13 02:22:35;;;;;;;;;;;;;;;14.70;72.04;103040.22;5071429;28;20008;-86
2022/11/13 02:25:01;;;;;;;;;;;;;;;14.68;72.00;103043.56;5053666;28;19916;-85
2022/11/13 02:27:30;;;;;;;;;;;;;;;14.68;72.05;103041.84;5076336;28;19916;-85
2022/11/13 02:29:55;;;;;;;;;;;;;;;14.63;72.34;103043.22;5064012;28;19919;-85
2022/11/13 02:32:20;;;;;;;;;;;;;;;14.69;72.13;103042.75;5056381;28;19916;-85
2022/11/13 02:34:46;;;;;;;;;;;;;;;14.70;71.97;103045.50;5075523;28;20397;-85
2022/11/13 02:37:11;;;;;;;;;;;;;;;14.70;72.05;103041.97;5068800;28;20384;-85
2022/11/13 02:39:37;;;;;;;;;;;;;;;14.66;72.10;103046.97;5080307;28;19952;-86
2022/11/13 02:42:02;;;;;;;;;;;;;;;14.68;72.05;103047.09;5066699;28;19954;-85
2022/11/13 02:44:28;;;;;;;;;;;;;;;14.65;72.14;103050.41;5074007;28;20454;-86
2022/11/13 02:46:53;;;;;;;;;;;;;;;14.74;71.86;103050.19;5080788;28;19928;-86
2022/11/13 02:49:18;;;;;;;;;;;;;;;14.64;72.07;103050.28;5073881;28;19977;-84
2022/11/13 02:51:44;;;;;;;;;;;;;;;14.68;72.19;103054.06;5073174;28;20416;-86
2022/11/13 02:54:09;;;;;;;;;;;;;;;14.72;72.00;103057.03;5078887;28;20402;-85
2022/11/13 02:56:35;;;;;;;;;;;;;;;14.65;72.11;103047.78;5065775;28;19912;-85
2022/11/13 02:59:00;;;;;;;;;;;;;;;14.75;71.81;103051.09;5081143;28;20313;-85
2022/11/13 03:01:26;;;;;;;;;;;;;;;14.71;71.95;103049.03;5081003;28;19935;-86
2022/11/13 03:03:51;;;;;;;;;;;;;;;14.73;71.88;103047.44;5068279;28;19977;-86
2022/11/13 03:06:16;;;;;;;;;;;;;;;14.70;72.00;103048.13;5083583;28;19939;-85
2022/11/13 03:08:42;;;;;;;;;;;;;;;14.77;71.81;103045.13;5068947;28;20342;-85
2022/11/13 03:11:08;;;;;;;;;;;;;;;14.74;71.85;103049.28;5065065;28;20454;-85
2022/11/13 03:13:34;;;;;;;;;;;;;;;14.74;71.84;103042.28;5072344;28;19913;-85
2022/11/13 03:16:09;;;;;;;;;;;;;;;14.78;71.57;103038.19;5074876;28;20011;-86
2022/11/13 03:18:34;;;;;;;;;;;;;;;14.71;71.95;103038.50;5072965;28;19912;-85
2022/11/13 03:21:04;;;;;;;;;;;;;;;14.76;71.52;103042.41;5079509;28;19920;-85
2022/11/13 03:23:30;;;;;;;;;;;;;;;14.76;71.82;103040.69;5072614;28;20485;-84
2022/11/13 03:25:55;;;;;;;;;;;;;;;14.73;71.76;103037.84;5073560;28;19951;-85
2022/11/13 03:28:20;;;;;;;;;;;;;;;14.75;71.74;103036.25;5069294;28;20435;-85
2022/11/13 03:30:46;;;;;;;;;;;;;;;14.72;71.81;103041.25;5075337;28;19912;-86
2022/11/13 03:33:11;;;;;;;;;;;;;;;14.76;71.54;103043.31;5066587;28;20624;-85
2022/11/13 03:35:37;;;;;;;;;;;;;;;14.66;71.80;103039.09;5066771;28;20304;-86
2022/11/13 03:38:02;;;;;;;;;;;;;;;14.76;71.76;103039.78;5075540;28;19968;-85
2022/11/13 03:40:28;;;;;;;;;;;;;;;14.75;71.82;103037.94;5077532;28;19916;-86
2022/11/13 03:42:53;;;;;;;;;;;;;;;14.72;71.86;103040.34;5088384;28;20393;-86
2022/11/13 03:45:18;;;;;;;;;;;;;;;14.75;71.67;103043.19;5065819;28;20392;-86
2022/11/13 03:47:44;;;;;;;;;;;;;;;14.71;71.91;103038.50;5079805;28;19991;-86
2022/11/13 03:50:09;;;;;;;;;;;;;;;14.74;71.70;103038.75;5068370;28;20445;-86
2022/11/13 03:52:35;;;;;;;;;;;;;;;14.72;71.80;103038.63;5072239;28;20430;-84
2022/11/13 03:55:00;;;;;;;;;;;;;;;14.66;72.01;103039.09;5062144;28;19936;-85
2022/11/13 03:57:25;;;;;;;;;;;;;;;14.73;71.80;103042.16;5072790;28;19912;-85
2022/11/13 03:59:51;;;;;;;;;;;;;;;14.69;71.83;103038.41;5069132;28;20404;-86
2022/11/13 04:02:16;;;;;;;;;;;;;;;14.68;71.89;103038.28;5077806;28;20374;-85
2022/11/13 04:04:43;;;;;;;;;;;;;;;14.64;72.11;103045.03;5078094;28;20270;-85
2022/11/13 04:07:08;;;;;;;;;;;;;;;14.74;71.79;103044.00;5070860;28;19912;-86
2022/11/13 04:09:34;;;;;;;;;;;;;;;14.75;71.67;103045.81;5054927;28;19924;-85
2022/11/13 04:11:59;;;;;;;;;;;;;;;14.66;72.04;103040.81;5060185;28;20287;-86
2022/11/13 04:14:25;;;;;;;;;;;;;;;14.64;71.84;103040.69;5081141;28;19916;-83
2022/11/13 04:16:50;;;;;;;;;;;;;;;14.72;71.69;103037.72;5072505;28;20297;-83
2022/11/13 04:19:15;;;;;;;;;;;;;;;14.72;71.69;103040.34;5070629;28;20408;-85
2022/11/13 04:21:41;;;;;;;;;;;;;;;14.68;71.81;103035.66;5064237;28;20301;-85
2022/11/13 04:24:06;;;;;;;;;;;;;;;14.62;71.98;103042.28;5062307;28;20373;-85
2022/11/13 04:26:32;;;;;;;;;;;;;;;14.69;71.84;103045.38;5064757;28;20357;-85
2022/11/13 04:28:57;;;;;;;;;;;;;;;14.64;71.83;103040.69;5077631;28;19945;-85
2022/11/13 04:31:23;;;;;;;;;;;;;;;14.65;71.80;103047.78;5068838;28;19919;-85
2022/11/13 04:33:48;;;;;;;;;;;;;;;14.69;71.83;103040.09;5081300;28;19912;-86
2022/11/13 04:36:13;;;;;;;;;;;;;;;14.69;71.86;103043.69;5072604;28;20373;-85
2022/11/13 04:38:39;;;;;;;;;;;;;;;14.74;71.66;103044.00;5062353;28;20450;-86
2022/11/13 04:43:48;;;;;;;;;;;;;;;14.69;71.63;103050.63;5059446;28;19963;-85
2022/11/13 04:46:13;;;;;;;;;;;;;;;14.66;72.00;103054.84;5065327;28;19947;-85
2022/11/13 04:48:39;;;;;;;;;;;;;;;14.64;71.87;103047.66;5068195;28;19913;-86
2022/11/13 04:51:04;;;;;;;;;;;;;;;14.65;71.71;103046.88;5060291;28;20309;-85
2022/11/13 04:53:30;;;;;;;;;;;;;;;14.71;71.61;103051.66;5072546;28;19996;-84
2022/11/13 04:55:55;;;;;;;;;;;;;;;14.67;71.57;103055.81;5073016;28;19919;-86
2022/11/13 04:58:21;;;;;;;;;;;;;;;14.69;71.67;103051.56;5058434;28;20463;-86
2022/11/13 05:00:46;;;;;;;;;;;;;;;14.63;71.86;103061.63;5069717;28;19920;-86
2022/11/13 05:03:11;;;;;;;;;;;;;;;14.60;71.97;103057.03;5060485;28;19912;-85
2022/11/13 05:05:37;;;;;;;;;;;;;;;14.65;71.78;103062.66;5055270;28;20377;-83
2022/11/13 05:08:02;;;;;;;;;;;;;;;14.66;71.73;103052.22;5065814;28;20457;-86
2022/11/13 05:10:28;;;;;;;;;;;;;;;14.69;71.70;103061.16;5060588;28;19912;-86
2022/11/13 05:12:56;;;;;;;;;;;;;;;14.69;71.69;103063.78;5076769;28;19932;-86
2022/11/13 05:15:21;;;;;;;;;;;;;;;14.64;71.65;103055.56;5083065;28;20649;-85
2022/11/13 05:17:50;;;;;;;;;;;;;;;14.66;71.76;103056.59;5070477;28;19913;-85
2022/11/13 05:20:15;;;;;;;;;;;;;;;14.64;71.63;103058.19;5070968;28;19920;-86
2022/11/13 05:22:41;;;;;;;;;;;;;;;14.61;71.83;103057.97;5070241;28;19934;-84
2022/11/13 05:25:06;;;;;;;;;;;;;;;14.65;71.62;103066.19;5067654;28;19908;-84
2022/11/13 05:27:32;;;;;;;;;;;;;;;14.63;71.79;103069.53;5065157;28;20416;-84
2022/11/13 05:29:57;;;;;;;;;;;;;;;14.65;71.63;103066.19;5059669;28;19921;-84
2022/11/13 05:32:23;;;;;;;;;;;;;;;14.68;71.65;103065.50;5060538;28;19963;-84
2022/11/13 05:34:48;;;;;;;;;;;;;;;14.68;71.65;103064.59;5079356;28;20377;-84
2022/11/13 05:37:13;;;;;;;;;;;;;;;14.70;71.46;103073.50;5059244;28;19931;-85
2022/11/13 05:39:39;;;;;;;;;;;;;;;14.64;71.65;103066.97;5069301;28;20409;-85
2022/11/13 05:42:05;;;;;;;;;;;;;;;14.60;71.78;103066.66;5068728;28;20007;-86
2022/11/13 05:44:30;;;;;;;;;;;;;;;14.60;71.89;103067.56;5063810;28;20479;-86
2022/11/13 05:46:55;;;;;;;;;;;;;;;14.61;71.79;103076.38;5071411;28;19970;-85
2022/11/13 05:49:21;;;;;;;;;;;;;;;14.64;71.87;103072.25;5058849;28;19912;-88
2022/11/13 05:51:46;;;;;;;;;;;;;;;14.62;71.64;103075.56;5075051;28;20080;-85
2022/11/13 05:54:12;;;;;;;;;;;;;;;14.65;71.72;103075.81;5070942;28;20294;-88
2022/11/13 05:56:37;;;;;;;;;;;;;;;14.61;71.92;103079.00;5055267;28;20361;-88
2022/11/13 05:59:04;;;;;;;;;;;;;;;14.62;71.66;103081.72;5071950;28;19965;-87
2022/11/13 06:01:31;;;;;;;;;;;;;;;14.61;71.79;103082.53;5069778;28;19908;-86
2022/11/13 06:03:56;;;;;;;;;;;;;;;14.54;72.00;103076.66;5070138;28;19959;-86
2022/11/13 06:06:22;;;;;;;;;;;;;;;14.66;71.66;103089.06;5067986;28;19951;-85
2022/11/13 06:08:48;;;;;;;;;;;;;;;14.57;72.00;103082.22;5066541;28;19916;-85
2022/11/13 06:11:15;;;;;;;;;;;;;;;14.58;71.75;103084.97;5069973;28;19912;-85
2022/11/13 06:13:40;;;;;;;;;;;;;;;14.62;71.82;103075.56;5076097;28;19912;-85
2022/11/13 06:16:17;;;;;;;;;;;;;;;14.64;71.69;103080.13;5075107;28;19991;-90
2022/11/13 06:18:42;;;;;;;;;;;;;;;14.63;71.74;103078.31;5057854;28;19908;-85
2022/11/13 06:21:12;;;;;;;;;;;;;;;14.63;71.80;103077.41;5055202;28;19916;-88
2022/11/13 06:23:38;;;;;;;;;;;;;;;14.50;72.24;103069.34;5064634;28;19918;-88
2022/11/13 06:26:24;;;;;;;;;;;;;;;14.52;72.20;103075.63;5066890;28;20309;-83
2022/11/13 06:28:49;;;;;;;;;;;;;;;14.58;71.94;103063.94;5067019;28;19924;-84
2022/11/13 06:31:22;;;;;;;;;;;;;;;14.58;72.00;103071.81;5076939;28;19919;-83
2022/11/13 06:33:47;;;;;;;;;;;;;;;14.59;71.85;103065.75;5059107;28;19912;-84
2022/11/13 06:36:14;;;;;;;;;;;;;;;14.62;71.83;103072.94;5076296;28;19912;-84
2022/11/13 06:38:40;;;;;;;;;;;;;;;14.62;71.77;103067.69;5077015;28;19913;-84
2022/11/13 06:41:05;;;;;;;;;;;;;;;14.64;71.69;103071.34;5063405;28;19919;-84
2022/11/13 06:43:31;;;;;;;;;;;;;;;14.57;71.92;103067.34;5073335;28;19970;-85
2022/11/13 06:45:56;;;;;;;;;;;;;;;14.60;71.96;103067.56;5075157;28;20011;-83
2022/11/13 06:48:22;;;;;;;;;;;;;;;14.58;71.86;103069.19;5056071;28;20398;-85
2022/11/13 06:50:47;;;;;;;;;;;;;;;14.56;71.90;103070.78;5057490;28;20097;-84
2022/11/13 06:53:12;;;;;;;;;;;;;;;14.53;72.15;103065.25;5053411;28;19913;-84
2022/11/13 06:55:45;;;;;;;;;;;;;;;14.51;72.25;103068.56;5056529;28;19912;-84
2022/11/13 06:58:11;;;;;;;;;;;;;;;14.57;72.11;103066.44;5072501;28;19994;-85
2022/11/13 07:00:36;;;;;;;;;;;;;;;14.53;72.11;103070.50;5072365;28;20365;-85
2022/11/13 07:03:02;;;;;;;;;;;;;;;14.46;72.44;103061.25;5073540;28;19974;-85
2022/11/13 07:05:27;;;;;;;;;;;;;;;14.49;72.35;103067.53;5087660;28;19908;-84
2022/11/13 07:07:53;;;;;;;;;;;;;;;14.49;72.36;103062.28;5068479;28;20304;-85
2022/11/13 07:10:18;;;;;;;;;;;;;;;14.46;72.39;103057.72;5070832;28;19974;-85
2022/11/13 07:12:44;;;;;;;;;;;;;;;14.44;72.49;103064.56;5064921;28;20382;-85
2022/11/13 07:15:09;;;;;;;;;;;;;;;14.45;72.49;103059.41;5085583;28;20400;-86
2022/11/13 07:17:34;;;;;;;;;;;;;;;14.45;72.50;103054.16;5080792;28;20401;-85
2022/11/13 07:20:00;;;;;;;;;;;;;;;14.53;72.17;103052.09;5071210;28;19912;-85
2022/11/13 07:22:31;;;;;;;;;;;;;;;14.48;72.49;103056.13;5072959;28;20423;-86
2022/11/13 07:24:57;;;;;;;;;;;;;;;14.46;72.34;103052.44;5076306;28;19920;-87
2022/11/13 07:27:22;;;;;;;;;;;;;;;14.54;72.34;103045.13;5073078;28;19908;-86
2022/11/13 07:29:48;;;;;;;;;;;;;;;14.48;72.35;103044.66;5068605;28;19912;-86
2022/11/13 07:32:13;;;;;;;;;;;;;;;14.46;72.53;103047.19;5053368;28;20026;-88
2022/11/13 07:34:40;;;;;;;;;;;;;;;14.50;72.33;103049.25;5068720;28;20365;-87
2022/11/13 07:37:05;;;;;;;;;;;;;;;14.48;72.37;103042.03;5069470;28;19908;-85
2022/11/13 07:39:31;;;;;;;;;;;;;;;14.53;72.35;103046.84;5075855;28;20449;-89
2022/11/13 07:41:56;;;;;;;;;;;;;;;14.46;72.22;103048.09;5075494;28;19991;-85
2022/11/13 07:44:22;;;;;;;;;;;;;;;14.50;72.24;103040.44;5067449;28;19943;-84
2022/11/13 07:46:47;;;;;;;;;;;;;;;14.49;72.32;103035.97;5081838;28;20349;-85
2022/11/13 07:49:12;;;;;;;;;;;;;;;14.44;72.63;103036.56;5070257;28;19919;-84
2022/11/13 07:51:38;;;;;;;;;;;;;;;14.46;72.63;103028.78;5071343;28;19939;-85
2022/11/13 07:54:03;;;;;;;;;;;;;;;14.49;72.48;103030.72;5079303;28;20308;-83
2022/11/13 07:56:29;;;;;;;;;;;;;;;14.46;72.46;103029.69;5064391;28;19916;-84
2022/11/13 07:58:54;;;;;;;;;;;;;;;14.50;72.41;103030.84;5065981;28;19912;-86
2022/11/13 08:01:20;;;;;;;;;;;;;;;14.47;72.62;103025.34;5071075;28;20369;-88
2022/11/13 08:03:45;;;;;;;;;;;;;;;14.51;72.46;103031.75;5056126;28;20405;-84
2022/11/13 08:06:10;;;;;;;;;;;;;;;14.44;72.58;103019.88;5076068;28;19916;-88
2022/11/13 08:08:36;;;;;;;;;;;;;;;14.48;72.65;103024.56;5072147;28;20355;-87
2022/11/13 08:11:05;;;;;;;;;;;;;;;14.50;72.41;103029.91;5080101;28;20378;-88
2022/11/13 08:13:33;;;;;;;;;;;;;;;14.50;72.44;103025.59;5069598;28;19913;-89
2022/11/13 08:15:59;;;;;;;;;;;;;;;14.49;72.50;103026.38;5070682;28;19938;-89
2022/11/13 08:18:25;;;;;;;;;;;;;;;14.49;72.48;103023.75;5064218;28;20342;-89
2022/11/13 08:20:51;;;;;;;;;;;;;;;14.51;72.53;103023.88;5074667;28;20515;-89
2022/11/13 08:23:16;;;;;;;;;;;;;;;14.44;72.54;103026.03;5078286;28;19912;-88
2022/11/13 08:25:42;;;;;;;;;;;;;;;14.41;72.70;103022.25;5070033;28;19916;-88
2022/11/13 08:28:13;;;;;;;;;;;;;;;14.42;72.92;103026.72;5075836;28;19915;-88
2022/11/13 08:30:38;;;;;;;;;;;;;;;14.47;72.61;103020.09;5058795;28;19909;-88
2022/11/13 08:33:04;;;;;;;;;;;;;;;14.49;72.91;103022.84;5057487;28;19923;-91
2022/11/13 08:35:31;;;;;;;;;;;;;;;14.46;72.69;103021.81;5052467;28;20389;-91
2022/11/13 08:38:05;;;;;;;;;;;;;;;14.48;72.80;103023.63;5053748;28;20042;-91
2022/11/13 08:40:32;;;;;;;;;;;;;;;14.44;72.83;103020.78;5052441;28;19912;-90
2022/11/13 08:42:59;;;;;;;;;;;;;;;14.37;72.92;103020.19;5058072;28;20449;-88
2022/11/13 08:45:33;;;;;;;;;;;;;;;14.36;73.12;103024.53;5065394;28;20666;-92
2022/11/13 08:48:00;;;;;;;;;;;;;;;14.39;72.91;103018.59;5058543;28;19920;-92
2022/11/13 08:50:27;;;;;;;;;;;;;;;14.46;72.96;103016.56;5052502;28;19908;-90
2022/11/13 08:52:54;;;;;;;;;;;;;;;14.53;72.61;103014.38;5052395;28;19920;-91
2022/11/13 08:55:19;;;;;;;;;;;;;;;14.52;72.67;103015.16;5051807;28;19908;-91
2022/11/13 08:57:48;;;;;;;;;;;;;;;14.48;72.72;103016.69;5052795;28;19912;-89
2022/11/13 09:00:14;;;;;;;;;;;;;;;14.47;72.71;103006.94;5076915;28;20011;-90
2022/11/13 09:02:40;;;;;;;;;;;;;;;14.46;72.78;103018.28;5070667;28;20402;-89
2022/11/13 09:05:06;;;;;;;;;;;;;;;14.45;72.95;103014.69;5069955;28;19915;-89
2022/11/13 09:07:36;;;;;;;;;;;;;;;14.44;72.93;103014.63;5055126;28;19908;-89
2022/11/13 09:10:01;;;;;;;;;;;;;;;14.49;72.80;103007.06;5079271;28;20456;-88
2022/11/13 09:12:26;;;;;;;;;;;;;;;14.43;72.80;103003.19;5059210;28;19912;-89
2022/11/13 09:14:52;;;;;;;;;;;;;;;14.47;72.84;103012.19;5067697;28;19966;-88
2022/11/13 09:17:17;;;;;;;;;;;;;;;14.53;72.64;103002.13;5070995;28;19908;-89
2022/11/13 09:19:43;;;;;;;;;;;;;;;14.53;72.64;102999.50;5063401;28;20423;-88
2022/11/13 09:22:09;;;;;;;;;;;;;;;14.56;72.47;103002.41;5069284;28;19908;-88
2022/11/13 09:24:35;;;;;;;;;;;;;;;14.48;72.92;102990.38;5059278;28;19968;-90
2022/11/13 09:27:03;;;;;;;;;;;;;;;14.54;72.44;102992.53;5064024;28;19920;-90
2022/11/13 09:29:51;;;;;;;;;;;;;;;14.52;72.60;102994.13;5072862;28;20007;-90
2022/11/13 09:32:20;;;;;;;;;;;;;;;14.54;72.74;102982.00;5072183;28;19912;-91
2022/11/13 09:34:49;;;;;;;;;;;;;;;14.57;72.61;102982.28;5055177;28;19916;-92
2022/11/13 09:37:18;;;;;;;;;;;;;;;14.54;72.68;102975.06;5067091;28;19912;-91
2022/11/13 09:39:54;;;;;;;;;;;;;;;14.62;72.44;102976.53;5061839;28;19912;-92
2022/11/13 09:42:21;;;;;;;;;;;;;;;14.64;72.18;102972.31;5051060;28;19935;-88
2022/11/13 09:44:54;;;;;;;;;;;;;;;14.61;72.36;102965.94;5071197;28;19955;-91
2022/11/13 09:47:20;;;;;;;;;;;;;;;14.64;72.34;102979.28;5060398;28;20373;-90
2022/11/13 09:49:47;;;;;;;;;;;;;;;14.58;72.54;102969.25;5067075;28;20025;-89
2022/11/13 09:52:14;;;;;;;;;;;;;;;14.66;72.21;102969.78;5049618;28;20377;-91
2022/11/13 09:54:39;;;;;;;;;;;;;;;14.58;72.53;102965.69;5070649;28;19931;-90
2022/11/13 09:57:28;;;;;;;;;;;;;;;14.63;72.48;102961.69;5061445;28;20362;-90
2022/11/13 10:00:05;;;;;;;;;;;;;;;14.71;72.22;102959.59;5063686;28;20041;-90
2022/11/13 10:02:46;;;;;;;;;;;;;;;14.66;72.30;102961.91;5062794;28;19913;-90
2022/11/13 10:05:17;;;;;;;;;;;;;;;14.65;72.35;102957.47;5065088;28;20392;-90
2022/11/13 10:07:58;;;;;;;;;;;;;;;14.64;72.42;102953.00;5073593;28;19914;-91
2022/11/13 10:10:28;;;;;;;;;;;;;;;14.62;72.26;102954.59;5059321;28;19917;-89
2022/11/13 10:12:54;;;;;;;;;;;;;;;14.61;72.38;102945.81;5059885;28;19958;-90
2022/11/13 10:15:26;;;;;;;;;;;;;;;14.68;72.65;102954.13;5063332;28;20002;-90
2022/11/13 10:17:54;;;;;;;;;;;;;;;14.73;72.07;102950.09;5062043;28;19912;-89
2022/11/13 10:20:22;;;;;;;;;;;;;;;14.61;72.41;102951.06;5050349;28;19908;-89
2022/11/13 10:22:53;;;;;;;;;;;;;;;14.63;72.25;102944.19;5060084;28;19919;-90
2022/11/13 10:25:24;;;;;;;;;;;;;;;14.68;72.34;102941.88;5055811;28;19919;-89
2022/11/13 10:27:57;;;;;;;;;;;;;;;14.72;72.04;102937.78;5069122;28;20011;-88
2022/11/13 10:33:25;;;;;;;;;;;;;;;14.63;72.48;102936.31;5065309;28;19924;-86
2022/11/13 10:35:53;;;;;;;;;;;;;;;14.70;72.24;102936.75;5045460;28;19913;-87
2022/11/13 10:38:28;;;;;;;;;;;;;;;14.67;72.43;102932.19;5063212;28;20366;-87
2022/11/13 10:41:03;;;;;;;;;;;;;;;14.59;72.59;102925.47;5068755;28;20471;-88
2022/11/13 10:43:28;;;;;;;;;;;;;;;14.58;72.75;102926.25;5078063;28;19940;-88
2022/11/13 10:45:55;;;;;;;;;;;;;;;14.65;72.27;102923.28;5050504;28;20000;-87
2022/11/13 10:48:23;;;;;;;;;;;;;;;14.68;72.35;102912.97;5064818;28;19909;-87
2022/11/13 10:50:52;;;;;;;;;;;;;;;14.61;72.56;102906.34;5057137;28;20366;-88
2022/11/13 10:53:17;;;;;;;;;;;;;;;14.66;72.38;102912.84;5050630;28;19966;-88
2022/11/13 10:55:44;;;;;;;;;;;;;;;14.67;72.35;102908.53;5074075;28;20003;-87
2022/11/13 10:58:11;;;;;;;;;;;;;;;14.63;72.48;102906.47;5067680;28;19940;-88
2022/11/13 11:00:43;;;;;;;;;;;;;;;14.60;72.79;102903.59;5065820;28;20329;-87
2022/11/13 11:03:14;;;;;;;;;;;;;;;14.60;72.53;102895.72;5068563;28;19915;-88
2022/11/13 11:05:49;;;;;;;;;;;;;;;14.59;72.68;102904.44;5059752;28;19931;-88
2022/11/13 11:08:15;;;;;;;;;;;;;;;14.61;72.72;102898.47;5069541;28;20308;-87
2022/11/13 11:12:14;;;;;;;;;;;;;;;14.61;72.60;102906.34;5054872;28;19999;-88
2022/11/13 11:13:30;;;;;;;;;;;;;;;14.70;72.51;102890.31;5077366;28;19916;-90
2022/11/13 11:15:59;;;;;;;;;;;;;;;14.57;73.02;102893.78;5079846;28;20378;-88
2022/11/13 11:18:29;;;;;;;;;;;;;;;14.62;72.68;102887.13;5061370;28;19931;-88
2022/11/13 11:20:58;;;;;;;;;;;;;;;14.60;72.98;102893.09;5088498;28;19991;-89
2022/11/13 11:23:27;;;;;;;;;;;;;;;14.64;72.72;102893.41;5061778;28;19909;-89
2022/11/13 11:25:53;;;;;;;;;;;;;;;14.62;72.93;102891.47;5061738;28;20374;-88
2022/11/13 11:28:36;;;;;;;;;;;;;;;14.59;72.89;102892.19;5060914;28;19986;-89
2022/11/13 11:31:10;;;;;;;;;;;;;;;14.59;72.91;102880.75;5059605;28;20523;-88
2022/11/13 11:33:37;;;;;;;;;;;;;;;14.58;72.94;102885.13;5054866;28;19924;-88
2022/11/13 11:36:24;;;;;;;;;;;;;;;14.70;72.53;102885.06;5063918;28;19908;-89
2022/11/13 11:38:59;;;;;;;;;;;;;;;14.59;72.73;102886.91;5061578;28;20374;-88
2022/11/13 11:41:26;;;;;;;;;;;;;;;14.64;72.82;102888.16;5072131;28;19915;-88
2022/11/13 11:44:10;;;;;;;;;;;;;;;14.67;72.53;102879.59;5054831;28;20380;-88
2022/11/13 11:46:37;;;;;;;;;;;;;;;14.57;73.00;102872.75;5072277;28;19916;-88
2022/11/13 11:49:02;;;;;;;;;;;;;;;14.65;72.65;102881.19;5056181;28;19940;-88
2022/11/13 11:51:38;;;;;;;;;;;;;;;14.62;72.66;102878.34;5069130;28;19958;-88
2022/11/13 11:54:23;;;;;;;;;;;;;;;14.66;72.70;102878.66;5055674;28;19909;-88
2022/11/13 11:56:55;;;;;;;;;;;;;;;14.64;72.77;102879.34;5056010;28;19920;-88
2022/11/13 11:59:39;;;;;;;;;;;;;;;14.63;72.71;102870.56;5056114;28;19915;-88
2022/11/13 12:02:23;;;;;;;;;;;;;;;14.64;72.71;102875.00;5069707;28;20314;-87
2022/11/13 12:04:51;;;;;;;;;;;;;;;14.72;72.41;102878.19;5075498;28;19913;-87
2022/11/13 12:07:26;;;;;;;;;;;;;;;14.69;72.63;102875.34;5075512;28;19951;-88
2022/11/13 12:10:01;;;;;;;;;;;;;;;14.66;72.71;102872.50;5056969;28;20065;-88
2022/11/13 12:12:42;;;;;;;;;;;;;;;14.63;72.85;102875.81;5069594;28;19919;-86
2022/11/13 12:15:10;;;;;;;;;;;;;;;14.69;72.57;102866.53;5060412;28;19909;-88
2022/11/13 12:17:54;;;;;;;;;;;;;;;14.67;72.60;102863.81;5064143;28;19920;-86
2022/11/13 12:20:43;;;;;;;;;;;;;;;14.69;72.62;102866.53;5068785;28;19915;-88
2022/11/13 12:23:25;;;;;;;;;;;;;;;14.72;72.37;102861.50;5065231;28;19977;-88
2022/11/13 12:26:03;;;;;;;;;;;;;;;14.68;72.67;102863.00;5054334;28;19951;-89
2022/11/13 12:28:47;;;;;;;;;;;;;;;14.63;72.79;102870.56;5066664;28;20290;-88
2022/11/13 12:31:28;;;;;;;;;;;;;;;14.64;73.17;102868.84;5071783;28;19915;-89
2022/11/13 12:34:04;;;;;;;;;;;;;;;14.60;73.00;102872.94;5070211;28;20366;-87
2022/11/13 12:36:29;;;;;;;;;;;;;;;14.67;72.88;102863.81;5059545;28;19912;-88
2022/11/13 12:38:57;;;;;;;;;;;;;;;14.61;72.88;102869.53;5068384;28;19909;-91
2022/11/13 12:41:29;;;;;;;;;;;;;;;14.64;72.97;102869.75;5053076;28;20305;-88
2022/11/13 12:44:13;;;;;;;;;;;;;;;14.64;72.79;102864.47;5064066;28;20316;-88